createdAt,value
2017-12-25T00:00:21.825Z,12.30
2017-12-25T00:02:50.216Z,14.33
2017-12-25T00:05:19.072Z,12.10
2017-12-25T00:07:47.512Z,11.60
2017-12-25T00:10:16.565Z,14.50
2017-12-25T00:12:45.471Z,16.60
2017-12-25T00:15:13.936Z,13.93
2017-12-25T00:17:42.504Z,13.93
2017-12-25T00:20:11.140Z,13.10
2017-12-25T00:22:40.216Z,13.67
2017-12-25T00:25:08.699Z,13.83
2017-12-25T00:27:37.632Z,12.80
2017-12-25T00:30:05.960Z,16.03
2017-12-25T00:32:35.031Z,12.67
2017-12-25T00:35:04.065Z,12.13
2017-12-25T00:37:32.395Z,14.60
2017-12-25T00:40:01.912Z,16.57
2017-12-25T00:42:30.692Z,15.20
2017-12-25T00:44:59.576Z,11.83
2017-12-25T00:47:28.064Z,13.37
2017-12-25T00:49:57.060Z,15.10
2017-12-25T00:52:25.456Z,13.57
2017-12-25T00:54:54.456Z,14.87
2017-12-25T00:57:25.120Z,18.60
2017-12-25T00:59:53.564Z,15.10
2017-12-25T01:02:22.549Z,14.07
2017-12-25T01:04:53.381Z,14.90
2017-12-25T01:07:27.405Z,14.90
2017-12-25T01:09:56.341Z,15.33
2017-12-25T01:12:25.412Z,18.10
2017-12-25T01:14:55.965Z,20.23
2017-12-25T01:17:25.256Z,16.40
2017-12-25T01:19:55.333Z,15.80
2017-12-25T01:22:24.244Z,16.37
2017-12-25T01:24:53.335Z,14.43
2017-12-25T01:27:21.707Z,19.67
2017-12-25T01:29:50.723Z,14.23
2017-12-25T01:32:19.164Z,15.60
2017-12-25T01:34:49.780Z,17.17
2017-12-25T01:37:18.888Z,15.70
2017-12-25T01:39:47.214Z,16.30
2017-12-25T01:42:15.988Z,16.40
2017-12-25T01:44:44.535Z,14.60
2017-12-25T01:47:13.129Z,17.57
2017-12-25T01:49:41.673Z,14.53
2017-12-25T01:52:10.135Z,14.40
2017-12-25T01:54:40.212Z,14.50
2017-12-25T02:10:34.591Z,14.47
2017-12-25T02:13:03.528Z,16.03
2017-12-25T02:15:32.640Z,15.90
2017-12-25T02:18:00.999Z,13.13
2017-12-25T02:20:29.983Z,15.47
2017-12-25T02:22:58.431Z,13.43
2017-12-25T02:25:26.859Z,13.53
2017-12-25T02:27:55.160Z,15.50
2017-12-25T02:30:23.964Z,16.57
2017-12-25T02:32:53.057Z,16.53
2017-12-25T02:35:22.271Z,12.27
2017-12-25T02:37:51.200Z,11.67
2017-12-25T02:40:20.428Z,11.93
2017-12-25T02:42:49.380Z,12.43
2017-12-25T02:45:17.699Z,13.73
2017-12-25T02:47:46.053Z,11.90
2017-12-25T02:50:14.471Z,12.10
2017-12-25T02:52:43.392Z,17.87
2017-12-25T02:55:12.521Z,16.37
2017-12-25T02:57:41.496Z,13.10
2017-12-25T03:00:11.433Z,13.93
2017-12-25T03:02:41.231Z,11.07
2017-12-25T03:05:09.918Z,14.80
2017-12-25T03:07:38.865Z,16.83
2017-12-25T03:10:08.539Z,14.40
2017-12-25T03:12:38.545Z,16.53
2017-12-25T03:15:08.463Z,14.87
2017-12-25T03:17:38.382Z,12.50
2017-12-25T03:20:08.290Z,10.97
2017-12-25T03:22:37.756Z,14.10
2017-12-25T03:25:08.067Z,15.63
2017-12-25T03:27:38.044Z,13.10
2017-12-25T03:30:07.952Z,16.53
2017-12-25T03:32:36.808Z,14.47
2017-12-25T03:35:05.165Z,16.63
2017-12-25T03:37:33.663Z,12.23
2017-12-25T03:40:02.468Z,15.97
2017-12-25T03:42:31.119Z,14.43
2017-12-25T03:45:00.090Z,14.83
2017-12-25T03:47:28.395Z,12.60
2017-12-25T03:49:57.429Z,12.23
2017-12-25T03:52:25.767Z,13.43
2017-12-25T03:54:54.084Z,14.80
2017-12-25T03:57:23.235Z,11.43
2017-12-25T03:59:52.195Z,16.50
2017-12-25T04:02:20.501Z,15.00
2017-12-25T04:04:49.531Z,15.60
2017-12-25T04:07:17.979Z,13.50
2017-12-25T04:09:46.763Z,21.70
2017-12-25T04:12:15.179Z,15.67
2017-12-25T04:14:44.355Z,18.07
2017-12-25T04:17:13.389Z,14.60
2017-12-25T04:19:42.640Z,16.63
2017-12-25T04:22:11.792Z,12.40
2017-12-25T04:24:40.103Z,15.37
2017-12-25T04:27:08.411Z,16.00
2017-12-25T04:29:36.948Z,17.03
2017-12-25T04:32:05.852Z,13.27
2017-12-25T04:34:34.677Z,12.50
2017-12-25T04:37:03.620Z,14.13
2017-12-25T04:39:32.124Z,15.50
2017-12-25T04:42:01.227Z,13.60
2017-12-25T04:44:31.031Z,12.93
2017-12-25T04:47:00.112Z,15.47
2017-12-25T04:49:28.416Z,17.90
2017-12-25T04:51:57.048Z,14.17
2017-12-25T04:54:25.760Z,14.17
2017-12-25T04:56:54.662Z,16.30
2017-12-25T04:59:23.223Z,17.07
2017-12-25T05:01:52.407Z,14.93
2017-12-25T05:04:21.287Z,15.57
2017-12-25T05:06:50.076Z,13.73
2017-12-25T05:09:18.820Z,10.20
2017-12-25T05:11:47.920Z,17.63
2017-12-25T05:14:16.939Z,16.30
2017-12-25T05:16:45.240Z,13.10
2017-12-25T05:19:13.851Z,13.00
2017-12-25T05:21:42.532Z,14.00
2017-12-25T05:24:11.516Z,14.77
2017-12-25T05:26:39.911Z,14.87
2017-12-25T05:29:09.035Z,12.33
2017-12-25T05:31:38.064Z,15.73
2017-12-25T05:34:06.388Z,12.63
2017-12-25T05:36:35.500Z,10.27
2017-12-25T05:39:03.996Z,11.97
2017-12-25T05:41:32.960Z,14.80
2017-12-25T05:44:02.737Z,13.97
2017-12-25T05:46:31.807Z,16.60
2017-12-25T05:49:00.203Z,15.50
2017-12-25T05:51:29.135Z,14.13
2017-12-25T05:53:57.504Z,11.93
2017-12-25T05:56:25.928Z,14.30
2017-12-25T05:58:56.401Z,13.47
2017-12-25T06:01:24.852Z,12.63
2017-12-25T06:03:53.933Z,11.50
2017-12-25T06:06:23.080Z,12.40
2017-12-25T06:08:52.040Z,15.97
2017-12-25T06:11:21.208Z,13.33
2017-12-25T06:13:50.312Z,13.15
2017-12-25T06:16:18.896Z,16.00
2017-12-25T06:18:47.764Z,12.07
2017-12-25T06:21:16.855Z,13.83
2017-12-25T06:23:45.960Z,13.10
2017-12-25T06:26:14.893Z,14.77
2017-12-25T06:28:43.272Z,16.60
2017-12-25T06:31:12.188Z,16.33
2017-12-25T06:33:40.585Z,15.43
2017-12-25T06:36:09.827Z,15.70
2017-12-25T06:38:38.969Z,12.33
2017-12-25T06:41:07.988Z,13.60
2017-12-25T06:43:36.880Z,12.00
2017-12-25T06:46:06.828Z,14.13
2017-12-25T06:48:35.859Z,12.77
2017-12-25T06:51:04.268Z,14.20
2017-12-25T06:53:32.644Z,14.93
2017-12-25T06:56:01.585Z,15.87
2017-12-25T06:58:30.714Z,13.87
2017-12-25T07:00:59.120Z,13.10
2017-12-25T07:03:28.073Z,17.63
2017-12-25T07:05:56.485Z,18.23
2017-12-25T07:08:25.356Z,16.80
2017-12-25T07:10:54.562Z,15.67
2017-12-25T07:13:22.952Z,17.90
2017-12-25T07:15:51.921Z,15.40
2017-12-25T07:18:20.986Z,19.93
2017-12-25T07:20:59.271Z,14.77
2017-12-25T07:23:27.916Z,19.27
2017-12-25T07:25:57.752Z,17.33
2017-12-25T07:28:26.452Z,18.37
2017-12-25T07:30:55.664Z,20.57
2017-12-25T07:33:24.167Z,18.47
2017-12-25T07:35:53.072Z,21.92
2017-12-25T07:38:21.992Z,20.97
2017-12-25T07:40:51.040Z,16.77
2017-12-25T07:43:19.400Z,19.73
2017-12-25T07:45:47.885Z,18.10
2017-12-25T07:48:16.684Z,16.57
2017-12-25T07:50:45.900Z,18.17
2017-12-25T07:53:14.605Z,14.82
2017-12-25T07:55:43.969Z,16.00
2017-12-25T07:58:12.407Z,21.60
2017-12-25T08:00:41.208Z,13.03
2017-12-25T08:03:09.821Z,17.37
2017-12-25T08:05:38.652Z,17.27
2017-12-25T08:08:07.041Z,18.47
2017-12-25T08:10:35.359Z,15.57
2017-12-25T08:13:04.540Z,12.57
2017-12-25T08:15:33.044Z,16.20
2017-12-25T08:18:01.802Z,13.50
2017-12-25T08:20:30.860Z,11.70
2017-12-25T08:22:59.225Z,13.90
2017-12-25T08:25:28.624Z,14.17
2017-12-25T08:27:57.350Z,15.93
2017-12-25T08:30:26.191Z,13.00
2017-12-25T08:32:55.224Z,14.93
2017-12-25T08:35:23.756Z,13.67
2017-12-25T08:37:52.120Z,15.43
2017-12-25T08:40:20.951Z,17.20
2017-12-25T08:42:49.419Z,13.63
2017-12-25T08:45:18.244Z,16.20
2017-12-25T08:47:46.836Z,12.53
2017-12-25T08:50:15.144Z,16.53
2017-12-25T08:52:43.708Z,11.57
2017-12-25T08:55:12.519Z,13.40
2017-12-25T08:57:41.692Z,11.90
2017-12-25T09:00:10.179Z,10.30
2017-12-25T09:02:38.912Z,12.57
2017-12-25T09:05:07.251Z,14.13
2017-12-25T09:07:36.444Z,17.80
2017-12-25T09:10:04.924Z,18.20
2017-12-25T09:12:33.645Z,15.10
2017-12-25T09:15:02.105Z,24.70
2017-12-25T09:17:31.192Z,17.80
2017-12-25T09:20:00.025Z,17.53
2017-12-25T09:22:28.496Z,18.20
2017-12-25T09:24:57.519Z,18.10
2017-12-25T09:27:25.966Z,20.00
2017-12-25T09:29:54.936Z,12.93
2017-12-25T09:32:23.957Z,14.00
2017-12-25T09:34:52.752Z,16.43
2017-12-25T09:37:21.129Z,17.57
2017-12-25T09:39:49.515Z,13.98
2017-12-25T09:42:17.902Z,16.70
2017-12-25T09:44:47.658Z,18.47
2017-12-25T09:47:16.070Z,17.10
2017-12-25T09:49:44.815Z,16.27
2017-12-25T09:52:13.469Z,20.73
2017-12-25T09:54:42.644Z,15.37
2017-12-25T09:57:11.200Z,16.67
2017-12-25T09:59:40.188Z,19.10
2017-12-25T10:02:09.440Z,14.53
2017-12-25T10:04:38.662Z,16.47
2017-12-25T10:07:07.285Z,14.10
2017-12-25T10:09:36.499Z,16.30
2017-12-25T10:12:04.873Z,17.77
2017-12-25T10:14:34.530Z,18.27
2017-12-25T10:17:02.986Z,13.93
2017-12-25T10:19:31.414Z,13.77
2017-12-25T10:22:00.392Z,12.00
2017-12-25T10:24:28.711Z,13.70
2017-12-25T10:26:58.691Z,14.40
2017-12-25T10:29:27.612Z,11.60
2017-12-25T10:31:56.788Z,15.27
2017-12-25T10:34:25.879Z,13.63
2017-12-25T10:36:54.977Z,13.83
2017-12-25T10:39:23.280Z,13.20
2017-12-25T10:41:51.779Z,9.17
2017-12-25T10:44:20.607Z,11.33
2017-12-25T10:46:48.920Z,15.33
2017-12-25T10:49:17.986Z,15.20
2017-12-25T10:51:46.380Z,13.50
2017-12-25T10:54:15.126Z,12.80
2017-12-25T10:56:43.594Z,12.83
2017-12-25T10:59:12.844Z,10.13
2017-12-25T11:01:41.564Z,9.57
2017-12-25T11:04:10.055Z,12.70
2017-12-25T11:06:38.571Z,12.60
2017-12-25T11:09:07.445Z,14.33
2017-12-25T11:11:35.890Z,13.67
2017-12-25T11:14:04.856Z,14.17
2017-12-25T11:16:33.172Z,15.90
2017-12-25T11:19:02.238Z,14.40
2017-12-25T11:21:30.639Z,14.73
2017-12-25T11:23:59.567Z,15.53
2017-12-25T11:26:27.980Z,11.30
2017-12-25T11:28:56.926Z,20.30
2017-12-25T11:31:25.318Z,10.53
2017-12-25T11:33:54.364Z,13.60
2017-12-25T11:36:23.529Z,11.20
2017-12-25T11:38:52.476Z,12.13
2017-12-25T11:41:20.945Z,16.30
2017-12-25T11:43:50.009Z,12.83
2017-12-25T11:46:18.896Z,11.27
2017-12-25T11:48:47.301Z,11.73
2017-12-25T11:51:16.327Z,11.80
2017-12-25T11:53:44.662Z,12.03
2017-12-25T11:56:13.852Z,14.20
2017-12-25T11:58:42.782Z,9.67
2017-12-25T12:01:11.092Z,10.03
2017-12-25T12:03:39.508Z,11.73
2017-12-25T12:06:08.431Z,11.30
2017-12-25T12:08:36.915Z,12.90
2017-12-25T12:11:05.931Z,13.40
2017-12-25T12:13:34.961Z,13.07
2017-12-25T12:16:03.668Z,13.97
2017-12-25T12:18:33.264Z,13.77
2017-12-25T12:21:02.238Z,12.70
2017-12-25T12:23:31.320Z,10.57
2017-12-25T12:25:59.688Z,11.10
2017-12-25T12:28:28.479Z,14.03
2017-12-25T12:30:59.587Z,13.40
2017-12-25T12:33:28.172Z,14.77
2017-12-25T12:35:56.932Z,10.87
2017-12-25T12:38:26.339Z,11.30
2017-12-25T12:40:54.962Z,16.87
2017-12-25T12:43:23.280Z,11.90
2017-12-25T12:45:52.405Z,12.70
2017-12-25T12:48:20.807Z,13.30
2017-12-25T12:50:49.896Z,15.13
2017-12-25T12:53:19.492Z,10.40
2017-12-25T12:55:48.721Z,16.20
2017-12-25T12:58:17.779Z,11.07
2017-12-25T13:00:46.982Z,10.90
2017-12-25T13:03:16.080Z,16.00
2017-12-25T13:05:45.263Z,10.70
2017-12-25T13:08:14.360Z,11.93
2017-12-25T13:10:42.847Z,12.23
2017-12-25T13:13:11.636Z,17.03
2017-12-25T13:15:40.711Z,13.63
2017-12-25T13:18:09.304Z,12.33
2017-12-25T13:20:38.029Z,13.57
2017-12-25T13:23:06.512Z,10.63
2017-12-25T13:25:34.915Z,12.80
2017-12-25T13:28:03.685Z,12.60
2017-12-25T13:30:32.047Z,17.03
2017-12-25T13:33:01.073Z,14.20
2017-12-25T13:35:29.415Z,17.03
2017-12-25T13:37:58.580Z,11.17
2017-12-25T13:40:27.516Z,15.10
2017-12-25T13:42:55.856Z,18.20
2017-12-25T13:45:25.057Z,17.73
2017-12-25T13:47:53.751Z,13.83
2017-12-25T13:50:23.202Z,14.53
2017-12-25T13:52:51.671Z,22.03
2017-12-25T13:55:20.447Z,17.30
2017-12-25T13:57:48.872Z,17.43
2017-12-25T14:00:17.985Z,18.90
2017-12-25T14:02:46.969Z,17.50
2017-12-25T14:05:15.422Z,12.10
2017-12-25T14:07:44.345Z,13.97
2017-12-25T14:10:13.420Z,15.40
2017-12-25T14:12:42.540Z,20.90
2017-12-25T14:15:10.987Z,18.67
2017-12-25T14:17:39.804Z,14.67
2017-12-25T14:20:08.305Z,14.10
2017-12-25T14:22:37.297Z,15.67
2017-12-25T14:25:06.369Z,18.40
2017-12-25T14:27:34.800Z,17.60
2017-12-25T14:30:04.212Z,18.90
2017-12-25T14:32:32.792Z,14.87
2017-12-25T14:35:01.164Z,16.80
2017-12-25T14:37:30.170Z,17.40
2017-12-25T14:39:59.436Z,17.00
2017-12-25T14:42:28.428Z,17.50
2017-12-25T14:44:57.463Z,14.17
2017-12-25T14:47:25.896Z,13.10
2017-12-25T14:49:55.001Z,16.10
2017-12-25T14:52:23.324Z,20.20
2017-12-25T14:54:52.210Z,18.00
2017-12-25T14:57:20.592Z,16.67
2017-12-25T14:59:49.406Z,20.90
2017-12-25T15:02:17.840Z,18.77
2017-12-25T15:04:46.280Z,20.03
2017-12-25T15:07:15.226Z,19.40
2017-12-25T15:09:43.563Z,26.67
2017-12-25T15:12:12.428Z,23.17
2017-12-25T15:14:41.728Z,19.60
2017-12-25T15:17:10.416Z,18.73
2017-12-25T15:19:38.902Z,20.53
2017-12-25T15:22:08.151Z,19.83
2017-12-25T15:24:36.471Z,28.13
2017-12-25T15:27:04.820Z,20.63
2017-12-25T15:29:33.584Z,19.50
2017-12-25T15:32:02.915Z,21.30
2017-12-25T15:34:31.293Z,21.00
2017-12-25T15:37:00.053Z,19.12
2017-12-25T15:39:28.387Z,18.63
2017-12-25T15:41:58.508Z,24.70
2017-12-25T15:44:26.960Z,23.97
2017-12-25T15:46:55.907Z,23.33
2017-12-25T15:49:24.996Z,21.03
2017-12-25T15:51:54.033Z,23.80
2017-12-25T15:54:22.828Z,19.60
2017-12-25T15:56:52.392Z,22.43
2017-12-25T15:59:24.647Z,23.20
2017-12-25T16:01:53.771Z,22.50
2017-12-25T16:04:22.797Z,25.63
2017-12-25T16:06:51.138Z,23.10
2017-12-25T16:09:20.789Z,22.95
2017-12-25T16:11:49.249Z,26.80
2017-12-25T16:14:17.592Z,21.27
2017-12-25T16:16:46.445Z,29.30
2017-12-25T16:19:14.903Z,27.77
2017-12-25T16:21:44.017Z,23.10
2017-12-25T16:24:12.412Z,26.40
2017-12-25T16:26:41.178Z,24.53
2017-12-25T16:29:09.712Z,22.90
2017-12-25T16:31:38.850Z,26.60
2017-12-25T16:34:07.911Z,29.10
2017-12-25T16:36:36.823Z,29.95
2017-12-25T16:39:05.289Z,25.67
2017-12-25T16:41:33.671Z,27.70
2017-12-25T16:44:02.576Z,25.63
2017-12-25T16:46:30.927Z,37.97
2017-12-25T16:48:59.249Z,27.60
2017-12-25T16:51:28.272Z,28.80
2017-12-25T16:53:57.532Z,28.55
2017-12-25T16:56:26.473Z,32.87
2017-12-25T16:58:54.785Z,26.33
2017-12-25T17:01:23.173Z,29.25
2017-12-25T17:03:52.072Z,29.90
2017-12-25T17:06:22.005Z,26.10
2017-12-25T17:08:50.495Z,26.02
2017-12-25T17:11:19.529Z,29.87
2017-12-25T17:13:48.630Z,30.50
2017-12-25T17:16:17.836Z,29.80
2017-12-25T17:18:46.805Z,27.70
2017-12-25T17:21:15.736Z,35.60
2017-12-25T17:23:44.128Z,32.35
2017-12-25T17:26:12.765Z,31.37
2017-12-25T17:28:41.394Z,33.90
2017-12-25T17:31:09.841Z,33.90
2017-12-25T17:33:38.782Z,42.45
2017-12-25T17:36:08.032Z,36.15
2017-12-25T17:38:37.177Z,33.97
2017-12-25T17:41:06.052Z,48.50
2017-12-25T17:43:34.380Z,63.10
2017-12-25T17:46:02.820Z,55.60
2017-12-25T17:48:31.691Z,52.62
2017-12-25T17:51:00.054Z,41.15
2017-12-25T17:53:29.276Z,68.35
2017-12-25T17:55:58.224Z,66.80
2017-12-25T17:58:27.132Z,49.47
2017-12-25T18:00:55.712Z,50.00
2017-12-25T18:03:24.631Z,54.20
2017-12-25T18:05:52.947Z,57.40
2017-12-25T18:08:21.976Z,47.92
2017-12-25T18:10:51.284Z,45.50
2017-12-25T18:13:20.352Z,64.97
2017-12-25T18:15:48.857Z,82.53
2017-12-25T18:18:18.299Z,101.28
2017-12-25T18:20:47.699Z,86.28
2017-12-25T18:23:16.804Z,73.43
2017-12-25T18:25:45.143Z,67.05
2017-12-25T18:28:14.136Z,53.80
2017-12-25T18:30:42.530Z,66.40
2017-12-25T18:33:11.272Z,55.88
2017-12-25T18:35:39.800Z,48.78
2017-12-25T18:38:08.761Z,73.30
2017-12-25T18:40:37.812Z,57.17
2017-12-25T18:43:06.346Z,45.93
2017-12-25T18:45:35.486Z,50.60
2017-12-25T18:48:10.211Z,55.35
2017-12-25T18:50:38.601Z,57.87
2017-12-25T18:53:07.685Z,39.63
2017-12-25T18:55:36.033Z,44.38
2017-12-25T18:58:04.392Z,42.00
2017-12-25T19:00:35.320Z,42.03
2017-12-25T19:03:04.593Z,46.83
2017-12-25T19:05:32.916Z,52.80
2017-12-25T19:08:01.985Z,45.00
2017-12-25T19:10:31.055Z,50.40
2017-12-25T19:12:59.972Z,52.08
2017-12-25T19:15:28.516Z,58.42
2017-12-25T19:18:02.825Z,47.17
2017-12-25T19:20:31.260Z,55.70
2017-12-25T19:23:00.708Z,49.47
2017-12-25T19:25:29.144Z,50.97
2017-12-25T19:27:57.519Z,53.40
2017-12-25T19:30:25.898Z,54.63
2017-12-25T19:32:54.908Z,59.00
2017-12-25T19:35:23.334Z,51.10
2017-12-25T19:37:51.840Z,71.40
2017-12-25T19:40:20.244Z,55.00
2017-12-25T19:42:48.621Z,54.90
2017-12-25T19:45:16.954Z,49.65
2017-12-25T19:47:45.408Z,65.07
2017-12-25T19:50:13.729Z,60.80
2017-12-25T19:52:42.059Z,66.47
2017-12-25T19:55:11.335Z,57.65
2017-12-25T19:57:40.021Z,66.90
2017-12-25T20:00:08.387Z,79.45
2017-12-25T20:02:36.736Z,59.53
2017-12-25T20:05:05.429Z,69.68
2017-12-25T20:07:33.748Z,81.30
2017-12-25T20:10:02.977Z,68.28
2017-12-25T20:12:31.304Z,86.47
2017-12-25T20:14:59.628Z,74.97
2017-12-25T20:17:28.082Z,87.88
2017-12-25T20:19:56.472Z,87.62
2017-12-25T20:22:24.788Z,76.45
2017-12-25T20:24:53.168Z,94.37
2017-12-25T20:27:21.551Z,80.32
2017-12-25T20:29:49.920Z,81.22
2017-12-25T20:32:18.352Z,92.88
2017-12-25T20:34:46.735Z,91.72
2017-12-25T20:37:15.111Z,82.43
2017-12-25T20:39:43.493Z,73.72
2017-12-25T20:42:11.862Z,72.78
2017-12-25T20:44:40.252Z,90.30
2017-12-25T20:47:08.911Z,97.25
2017-12-25T20:49:37.249Z,102.45
2017-12-25T20:52:05.664Z,103.80
2017-12-25T20:54:34.107Z,101.47
2017-12-25T20:57:02.484Z,93.15
2017-12-25T20:59:41.762Z,98.53
2017-12-25T21:02:10.109Z,106.80
2017-12-25T21:04:38.500Z,93.70
2017-12-25T21:07:07.908Z,108.90
2017-12-25T21:09:36.307Z,106.87
2017-12-25T21:12:04.788Z,84.57
2017-12-25T21:14:33.189Z,105.37
2017-12-25T21:17:02.339Z,91.30
2017-12-25T21:19:30.683Z,94.45
2017-12-25T21:21:59.207Z,92.53
2017-12-25T21:24:27.532Z,86.97
2017-12-25T21:26:56.686Z,87.78
2017-12-25T21:29:25.200Z,83.20
2017-12-25T21:31:53.575Z,73.03
2017-12-25T21:34:21.953Z,105.22
2017-12-25T21:36:50.475Z,103.45
2017-12-25T21:39:18.840Z,94.40
2017-12-25T21:41:47.256Z,93.25
2017-12-25T21:44:15.709Z,88.05
2017-12-25T21:46:44.169Z,87.05
2017-12-25T21:49:12.558Z,93.70
2017-12-25T21:51:41.090Z,82.47
2017-12-25T21:54:09.464Z,90.57
2017-12-25T21:56:37.839Z,94.00
2017-12-25T21:59:06.275Z,80.18
2017-12-25T22:01:35.417Z,92.05
2017-12-25T22:04:03.811Z,89.90
2017-12-25T22:06:32.184Z,86.43
2017-12-25T22:09:00.796Z,79.60
2017-12-25T22:11:29.455Z,95.15
2017-12-25T22:13:58.332Z,86.78
2017-12-25T22:16:27.415Z,86.32
2017-12-25T22:18:56.291Z,88.07
2017-12-25T22:21:25.607Z,94.10
2017-12-25T22:23:54.542Z,92.03
2017-12-25T22:26:22.926Z,82.78
2017-12-25T22:28:51.769Z,66.22
2017-12-25T22:31:20.627Z,96.50
2017-12-25T22:33:50.111Z,86.00
2017-12-25T22:36:19.251Z,78.60
2017-12-25T22:38:48.147Z,88.62
2017-12-25T22:41:16.575Z,86.25
2017-12-25T22:43:45.727Z,90.35
2017-12-25T22:46:14.272Z,100.28
2017-12-25T22:48:43.862Z,110.37
2017-12-25T22:51:12.985Z,94.00
2017-12-25T22:53:41.713Z,101.93
2017-12-25T22:56:11.112Z,107.05
2017-12-25T22:58:39.556Z,84.60
2017-12-25T23:01:08.620Z,89.90
2017-12-25T23:03:37.662Z,84.95
2017-12-25T23:06:10.059Z,86.25
2017-12-25T23:08:39.046Z,95.15
2017-12-25T23:11:08.282Z,100.05
2017-12-25T23:13:38.390Z,93.95
2017-12-25T23:16:07.318Z,92.85
2017-12-25T23:18:36.499Z,101.05
2017-12-25T23:21:05.395Z,81.57
2017-12-25T23:23:33.866Z,70.55
2017-12-25T23:26:02.772Z,67.32
2017-12-25T23:28:32.054Z,93.32
2017-12-25T23:31:00.448Z,80.38
2017-12-25T23:33:30.065Z,93.20
2017-12-25T23:35:58.721Z,82.20
2017-12-25T23:38:27.405Z,87.55
2017-12-25T23:40:55.787Z,78.50
2017-12-25T23:43:24.146Z,84.65
2017-12-25T23:45:53.059Z,93.65
2017-12-25T23:48:21.435Z,79.00
2017-12-25T23:50:50.616Z,98.10
2017-12-25T23:53:19.041Z,70.80
2017-12-25T23:55:48.139Z,87.97
2017-12-25T23:58:17.051Z,86.60
